• Join FlightAware (Why Join?)
  • Login
  • US Flag 
12:24AM EDT


 

Airport Tracker/Info


-or-


 

Live Flight TrackerFlight Track Log ✈ EJA922 ✈ 7 Oct 2013 ✈ KAUS - KHUM

Flight Track Log - Related Links

Times and Time Zones

All times are in EDT time to prevent confusion due to time zone crossing. See the EJA922 flight status page for this flight to view local times or setup timezone preferences in your user account.

Time Position Orientation Groundspeed Altitude Reporting Facility
EDT Latitude Longitude Course Direction KTS MPH feet Rate Location/Type
05:01PM 30.3036 -97.5814 90° East 260 299 6,700  Level Houston Center
05:02PM 30.3206 -97.4931 77° East 279 321 9,400 2,340 Climbing Houston Center
05:03PM 30.3339 -97.3933 81° East 306 352 11,600 2,040 Climbing Houston Center
05:04PM 30.3494 -97.2783 81° East 355 409 13,700 1,800 Climbing Houston Center
05:05PM 30.3567 -97.1558 86° East 379 436 15,400 2,220 Climbing Houston Center
05:06PM 30.1447 -96.9101 95° East  Level Estimated
05:06PM 30.3483 -97.0089 94° East 389 448 18,300  Level Houston Center
05:07PM 30.1360 -96.7835 90° East  Level Estimated
05:08PM 30.3408 -96.8844 94° East 387 445 20,200  Level Houston Center
05:09PM 30.3314 -96.7544 95° East 400 460 21,700 1,500 Climbing Houston Center
05:10PM 30.3244 -96.6181 93° East 416 479 23,300 1,440 Climbing Houston Center
05:11PM 30.3153 -96.4786 94° East 429 494 24,700 1,200 Climbing Houston Center
05:12PM 30.3058 -96.3333 94° East 446 513 25,800 1,080 Climbing Houston Center
05:13PM 30.2939 -96.1564 94° East 465 535 27,000 960 Climbing Houston Center
05:14PM 30.2839 -96.0094 94° East 477 549 27,900 900 Climbing Houston Center
05:15PM 30.2739 -95.8517 94° East 487 560 28,900 960 Climbing Houston Center
05:16PM 30.2636 -95.6911 94° East 498 573 29,900 960 Climbing Houston Center
05:17PM 30.2522 -95.5264 95° East 509 586 30,900 1,020 Climbing Houston Center
05:18PM 30.2386 -95.3269 94° East 516 594 32,100 1,020 Climbing Houston Center
05:19PM 30.2281 -95.1586 94° East 521 600 33,100 960 Climbing Houston Center
05:20PM 30.2153 -94.9892 95° East 523 602 34,100 900 Climbing Houston Center
05:21PM 30.2025 -94.8192 95° East 528 608 35,000 420 Climbing Houston Center
05:22PM 30.1911 -94.6472 94° East 532 612 35,000  Level Houston Center
05:23PM 30.1844 -94.4769 93° East 541 623 35,000  Level Houston Center
05:24PM 30.1794 -94.2700 92° East 540 621 35,000  Level Houston Center
05:25PM 30.1744 -94.0983 92° East 537 618 35,000  Level Houston Center
05:26PM 30.1703 -93.9267 92° East 538 619 35,000  Level Houston Center
05:27PM 30.1636 -93.7567 93° East 537 618 35,000  Level Houston Center
05:28PM 30.1567 -93.5853 93° East 542 624 35,000 -120 Level Houston Center
05:29PM 30.1492 -93.3825 92° East 541 623 34,800 -540 Descending Houston Center
05:30PM 30.1444 -93.2178 92° East 527 606 33,900 -1,020 Descending Houston Center
05:31PM 30.1283 -93.0489 96° East 531 611 32,800 -1,020 Descending Houston Center
05:32PM 30.0911 -92.8839 105° East 534 615 31,800 -1,080 Descending Houston Center
05:33PM 30.0453 -92.6833 105° East 539 620 30,600 -1,080 Descending Houston Center
05:34PM 30.0058 -92.5150 105° East 543 625 29,600 -1,020 Descending Houston Center
05:35PM 29.9686 -92.3483 104° East 539 620 28,600 -1,020 Descending Houston Center
05:36PM 29.9314 -92.1867 105° East 528 608 27,600 -1,260 Descending Houston Center
05:38PM 29.8944 -92.0269 105° East 519 597 26,100 -2,220 Descending Houston Center
05:39PM 29.8594 -91.8750 105° East 496 571 23,100 -3,300 Descending Houston Center
05:40PM 29.8181 -91.7050 106° East 475 547 19,500 -3,600 Descending Houston Center
05:40PM 29.8175 -91.6969 95° East 479 551 19,400 -2,400 Descending Houston Center
05:40PM 29.8042 -91.6453 107° East 474 545 18,500 -2,640 Descending Houston Center
05:41PM 29.7828 -91.5539 105° East 467 537 16,700 -2,760 Descending Houston Center
05:41PM 29.7700 -91.5050 107° East 457 526 15,700 -2,940 Descending Houston Center
05:42PM 29.7508 -91.4186 104° East 444 511 13,700 -2,940 Descending Houston Center
05:42PM 29.7400 -91.3767 107° East 425 489 12,800 -2,340 Descending Houston Center
05:43PM 29.7164 -91.2553 103° East 359 413 10,600 -1,500 Descending Houston Center
05:44PM 29.7033 -91.1889 103° East 358 412 10,200 -840 Descending Houston Center
05:44PM 29.6933 -91.1556 109° East 309 356 9,800 -1,500 Descending Houston Center
05:45PM 29.6814 -91.0981 103° East 311 358 8,700 -1,800 Descending Houston Center
05:45PM 29.6744 -91.0700 106° East 286 329 8,200 -2,040 Descending Houston Center
05:46PM 29.6556 -90.9928 106° East 296 341 6,600 -1,680 Descending Houston Center
05:46PM 29.6469 -90.9703 114° Southeast 289 333 6,400 -780 Descending Houston Center
05:47PM 29.6336 -90.9097 104° East 285 328 5,800 -780 Descending Houston Center
05:47PM 29.6261 -90.8850 109° East 224 258 5,500 -900 Descending Houston Center
05:48PM 29.6167 -90.8486 107° East 241 277 4,900 -600 Descending Houston Center
05:48PM 29.6075 -90.8186 109° East 194 223 4,900 -780 Level Houston Center
05:49PM 29.6014 -90.7886 103° East 214 246 4,100 -1,500 Descending Houston Center
05:49PM 29.5789 -90.7647 137° Southeast 211 243 3,400 -1,560 Descending Houston Center
05:50PM 29.5531 -90.7606 172° South 210 242 2,500 -1,560 Descending Houston Center
05:50PM 29.5267 -90.7617 182° South 219 252 2,000 -960 Descending Houston Center
05:51PM 29.4942 -90.7197 132° Southeast 182 209 1,300 -420 Descending Houston Center
05:52PM 29.4950 -90.6719 89° East 157 181 1,200 -300 Descending Houston Center
05:53PM 29.5281 -90.6589 19° North 141 162 800 -240 Descending Houston Center
05:54PM 29.5322 -90.6586 North 141 162 800  Level Houston Center